Time;durP1;ratioP1;P1;durP2;ratioP2;P2;SDS_P1;SDS_P2;PMS_P1;PMS_P2;Temp;Humidity;BMP_temperature;BMP_pressure;BME280_temperature;BME280_humidity;BME280_pressure;Samples;Min_cycle;Max_cycle;Signal;HPM_P1;HPM_P2
2021/01/09 05:01:46;;;;;;;22.88;10.80;;;;;;;1.13;83.19;100197.75;5362016;23;20061;-56
2021/01/09 05:04:12;;;;;;;22.48;10.88;;;;;;;1.05;82.90;100207.34;4866491;29;20072;-56
2021/01/09 05:06:39;;;;;;;22.27;10.60;;;;;;;1.14;82.68;100200.25;4869302;29;20037;-56
2021/01/09 05:09:05;;;;;;;24.02;12.20;;;;;;;1.07;82.81;100204.53;4870637;29;20041;-56
2021/01/09 05:11:31;;;;;;;25.10;12.85;;;;;;;1.18;83.17;100200.75;4868117;29;20049;-56
2021/01/09 05:13:58;;;;;;;26.33;11.55;;;;;;;1.28;81.51;100198.78;4853960;29;20044;-57
2021/01/09 05:16:25;;;;;;;21.30;10.43;;;;;;;1.28;81.87;100204.97;4850752;29;20055;-57
2021/01/09 05:18:50;;;;;;;22.05;11.90;;;;;;;1.24;82.22;100213.44;4880998;29;20068;-57
2021/01/09 05:21:17;;;;;;;23.05;11.98;;;;;;;1.13;83.20;100205.72;4869613;29;20510;-56
2021/01/09 05:24:02;;;;;;;23.42;10.75;;;;;;;1.29;81.74;100209.28;4866736;29;20113;-56
2021/01/09 05:26:28;;;;;;;22.17;11.45;;;;;;;1.44;81.64;100214.84;4871559;29;20048;-56
2021/01/09 05:28:57;;;;;;;23.83;11.43;;;;;;;1.21;81.84;100216.41;4893296;29;20108;-56
2021/01/09 05:31:24;;;;;;;25.55;11.30;;;;;;;1.07;81.37;100215.16;4876286;29;20044;-57
2021/01/09 05:33:52;;;;;;;16.92;9.75;;;;;;;0.99;82.26;100225.78;4867477;29;20048;-56
2021/01/09 05:36:18;;;;;;;23.00;11.90;;;;;;;0.92;83.23;100222.94;4892891;29;20116;-57
2021/01/09 05:38:45;;;;;;;24.20;11.25;;;;;;;0.88;82.70;100223.38;4875041;29;20406;-56
2021/01/09 05:41:13;;;;;;;23.88;12.23;;;;;;;1.03;82.07;100224.50;4891418;29;20053;-56
2021/01/09 05:43:39;;;;;;;22.35;11.55;;;;;;;1.23;81.71;100225.09;4891233;29;20128;-56
2021/01/09 05:46:07;;;;;;;22.55;10.82;;;;;;;1.15;81.58;100225.88;4888672;29;20077;-56
2021/01/09 05:48:35;;;;;;;25.33;12.18;;;;;;;1.26;81.15;100220.28;4889897;29;20410;-56
2021/01/09 05:51:05;;;;;;;23.00;11.18;;;;;;;1.24;80.94;100221.44;4876373;29;20044;-55
2021/01/09 05:53:47;;;;;;;20.83;11.05;;;;;;;1.41;80.07;100221.34;4892229;29;20051;-57
2021/01/09 05:56:21;;;;;;;19.42;10.82;;;;;;;1.39;80.08;100231.31;4889359;29;20048;-56
2021/01/09 05:58:48;;;;;;;20.15;10.70;;;;;;;1.34;79.78;100230.13;4890522;29;20107;-57
2021/01/09 06:01:18;;;;;;;22.27;10.88;;;;;;;1.41;80.03;100228.50;4875105;29;20048;-56
2021/01/09 06:03:52;;;;;;;20.13;10.77;;;;;;;1.12;80.67;100233.34;4875102;29;20032;-56
2021/01/09 06:06:28;;;;;;;22.20;10.98;;;;;;;1.11;80.61;100239.66;4890178;29;20070;-56
2021/01/09 06:08:57;;;;;;;22.60;10.40;;;;;;;1.07;80.41;100244.47;4872630;29;20040;-56
2021/01/09 06:11:29;;;;;;;25.83;11.63;;;;;;;1.08;81.37;100240.81;4888895;29;20040;-56
2021/01/09 06:13:59;;;;;;;17.92;9.70;;;;;;;0.85;81.31;100239.66;4889763;29;20044;-55
2021/01/09 06:16:36;;;;;;;20.20;10.80;;;;;;;1.00;81.03;100248.75;4856896;29;20045;-56
2021/01/09 06:19:03;;;;;;;21.20;11.48;;;;;;;0.93;81.12;100248.53;4871983;29;20514;-56
2021/01/09 06:21:31;;;;;;;22.27;11.52;;;;;;;0.85;81.18;100248.47;4872581;29;20037;-57
2021/01/09 06:23:58;;;;;;;21.00;11.40;;;;;;;0.77;80.03;100253.75;4858406;29;20124;-55
2021/01/09 06:26:25;;;;;;;23.10;10.60;;;;;;;0.94;80.53;100244.03;4855538;29;20068;-56
2021/01/09 06:28:55;;;;;;;23.92;10.07;;;;;;;0.61;80.16;100246.47;4856790;29;20092;-57
2021/01/09 06:31:24;;;;;;;19.55;10.70;;;;;;;0.57;80.10;100249.59;4842813;29;20057;-56
2021/01/09 06:33:52;;;;;;;19.45;9.32;;;;;;;0.41;79.71;100258.28;4856933;29;20042;-55
2021/01/09 06:36:19;;;;;;;23.67;10.95;;;;;;;0.34;80.44;100257.22;4856544;29;20045;-55
2021/01/09 06:38:49;;;;;;;21.90;11.75;;;;;;;0.38;79.65;100258.56;4854345;29;20400;-56
2021/01/09 06:41:19;;;;;;;20.17;11.10;;;;;;;0.39;80.29;100262.91;4841379;29;20042;-56
2021/01/09 06:43:49;;;;;;;23.30;10.88;;;;;;;0.28;79.20;100260.47;4888872;29;20463;-55
2021/01/09 06:46:29;;;;;;;22.20;10.27;;;;;;;0.30;79.71;100263.81;4874018;29;20048;-56
2021/01/09 06:48:54;;;;;;;24.08;11.40;;;;;;;0.19;79.90;100262.22;4871895;29;20041;-56
2021/01/09 06:51:32;;;;;;;23.92;9.98;;;;;;;0.27;80.51;100269.44;4872951;29;20080;-56
2021/01/09 06:54:23;;;;;;;20.42;10.93;;;;;;;0.05;79.85;100272.53;4872081;29;20064;-56
2021/01/09 06:57:10;;;;;;;20.25;10.60;;;;;;;0.05;79.35;100275.19;4867612;29;20055;-55
2021/01/09 06:59:44;;;;;;;20.90;10.70;;;;;;;-0.12;80.27;100277.69;4887623;29;20524;-56
2021/01/09 07:02:13;;;;;;;21.73;11.00;;;;;;;-0.04;80.39;100272.44;4890586;29;20041;-57
2021/01/09 07:05:00;;;;;;;19.35;11.00;;;;;;;0.23;79.78;100284.03;4885369;29;20061;-57
2021/01/09 07:07:54;;;;;;;22.90;10.82;;;;;;;0.31;79.92;100282.28;4852838;29;20041;-56
2021/01/09 07:10:26;;;;;;;21.20;11.18;;;;;;;0.52;78.94;100289.94;4857717;29;20076;-56
2021/01/09 07:12:59;;;;;;;22.73;11.32;;;;;;;0.59;79.53;100290.16;4857806;29;20044;-57
2021/01/09 07:15:28;;;;;;;24.10;12.35;;;;;;;0.80;79.36;100287.19;4862324;29;20502;-56
2021/01/09 07:17:58;;;;;;;25.08;12.40;;;;;;;0.82;78.98;100290.53;4860034;29;20418;-56
2021/01/09 07:20:35;;;;;;;21.83;11.98;;;;;;;0.81;78.90;100295.00;4855682;29;20052;-55
2021/01/09 07:23:05;;;;;;;19.92;10.95;;;;;;;0.83;79.61;100295.69;4885041;29;20057;-57
2021/01/09 07:25:32;;;;;;;21.45;11.25;;;;;;;0.88;78.43;100301.41;4875625;29;20085;-57
2021/01/09 07:28:00;;;;;;;23.90;12.82;;;;;;;1.00;79.14;100309.97;4905050;29;20048;-55
2021/01/09 07:30:28;;;;;;;19.63;10.60;;;;;;;1.11;78.08;100308.88;4903970;29;20127;-54
2021/01/09 07:32:56;;;;;;;21.60;12.00;;;;;;;1.18;77.78;100307.25;4875381;29;20510;-57
2021/01/09 07:35:25;;;;;;;21.92;11.30;;;;;;;1.14;76.89;100309.41;4871345;29;20040;-57
2021/01/09 07:38:04;;;;;;;22.52;10.60;;;;;;;1.23;76.49;100308.47;4872738;29;20059;-57
2021/01/09 07:40:50;;;;;;;20.98;11.15;;;;;;;1.30;76.77;100322.00;4879058;29;20169;-54
2021/01/09 07:43:42;;;;;;;20.92;11.85;;;;;;;1.32;77.96;100318.19;4851400;29;20256;-57
2021/01/09 07:46:32;;;;;;;22.38;12.02;;;;;;;1.28;77.78;100314.16;4862618;29;20538;-56
2021/01/09 07:49:03;;;;;;;23.67;12.82;;;;;;;1.31;76.33;100318.34;4862491;29;20037;-56
2021/01/09 07:51:55;;;;;;;22.02;12.63;;;;;;;1.01;79.12;100327.63;4861669;29;20037;-54
2021/01/09 07:54:38;;;;;;;23.83;12.10;;;;;;;0.91;79.70;100333.03;4863519;29;20074;-54
2021/01/09 07:57:05;;;;;;;23.95;11.77;;;;;;;0.82;80.46;100339.25;4856630;29;20188;-54
2021/01/09 07:59:31;;;;;;;19.95;11.38;;;;;;;0.90;79.51;100339.34;4868056;29;20044;-55
2021/01/09 08:01:57;;;;;;;18.70;11.00;;;;;;;1.17;78.27;100342.88;4871616;29;20044;-57
2021/01/09 08:04:23;;;;;;;21.80;11.90;;;;;;;1.31;78.45;100335.16;4862018;29;20048;-54
2021/01/09 08:06:49;;;;;;;20.10;11.48;;;;;;;1.25;78.69;100341.13;4850432;29;20046;-55
2021/01/09 08:09:14;;;;;;;22.05;11.95;;;;;;;1.33;78.90;100346.50;4865540;29;20049;-55
2021/01/09 08:11:41;;;;;;;21.83;12.38;;;;;;;1.49;77.63;100347.59;4877800;29;20131;-54
2021/01/09 08:14:07;;;;;;;22.63;11.43;;;;;;;1.52;77.82;100349.94;4859677;29;20044;-56
2021/01/09 08:16:32;;;;;;;21.30;12.35;;;;;;;1.55;77.06;100346.94;4870884;29;20048;-55
2021/01/09 08:19:13;;;;;;;22.20;11.77;;;;;;;1.54;77.32;100345.28;4869081;29;20104;-56
2021/01/09 08:21:40;;;;;;;22.33;11.13;;;;;;;1.69;77.20;100352.53;4885887;29;20044;-55
2021/01/09 08:24:07;;;;;;;26.08;13.88;;;;;;;1.74;77.30;100349.38;4869564;29;20511;-55
2021/01/09 08:26:33;;;;;;;29.63;15.90;;;;;;;1.67;77.55;100353.69;4889260;29;20379;-55
2021/01/09 08:28:58;;;;;;;29.35;16.98;;;;;;;1.69;78.10;100355.22;4875782;29;20100;-54
2021/01/09 08:31:25;;;;;;;31.23;18.13;;;;;;;1.72;78.21;100359.41;4873161;29;20044;-55
2021/01/09 08:33:52;;;;;;;29.88;17.15;;;;;;;1.86;78.26;100349.94;4873651;29;20045;-55
2021/01/09 08:36:23;;;;;;;27.00;15.73;;;;;;;1.92;77.75;100351.97;4887152;29;20049;-56
2021/01/09 08:38:50;;;;;;;27.42;15.90;;;;;;;1.90;77.70;100354.81;4889484;29;20067;-55
2021/01/09 08:41:16;;;;;;;24.80;13.55;;;;;;;2.03;77.16;100368.53;4871718;29;20128;-56
2021/01/09 08:43:43;;;;;;;22.92;12.95;;;;;;;1.79;78.06;100363.91;4887297;29;20044;-55
2021/01/09 08:46:15;;;;;;;22.50;12.77;;;;;;;1.67;78.25;100372.34;4872263;29;20044;-55
2021/01/09 08:48:40;;;;;;;27.27;16.17;;;;;;;1.97;77.64;100376.31;4871657;29;20563;-55
2021/01/09 08:51:14;;;;;;;29.70;16.10;;;;;;;1.93;77.63;100383.81;4872630;29;20133;-56
2021/01/09 08:53:55;;;;;;;29.10;15.65;;;;;;;2.08;77.64;100373.38;4872453;29;20047;-55
2021/01/09 08:56:22;;;;;;;28.47;16.27;;;;;;;2.09;76.38;100377.72;4872252;29;20049;-55
2021/01/09 08:58:49;;;;;;;28.33;15.98;;;;;;;2.11;76.48;100375.72;4870724;29;20040;-54
2021/01/09 09:01:21;;;;;;;28.67;16.15;;;;;;;2.19;76.12;100379.25;4869652;29;20410;-55
2021/01/09 09:03:49;;;;;;;;;;;;;;;2.13;75.97;100382.56;4871746;29;20704;-56
2021/01/09 09:06:21;;;;;;;26.15;16.13;;;;;;;2.31;75.87;100374.47;4879462;29;19971;-55
2021/01/09 09:08:47;;;;;;;24.30;14.27;;;;;;;2.38;75.50;100386.16;4881516;29;20574;-56
2021/01/09 09:11:15;;;;;;;28.23;14.07;;;;;;;2.27;75.57;100386.47;4885021;29;20037;-56
2021/01/09 09:13:40;;;;;;;27.58;14.60;;;;;;;2.40;75.03;100383.34;4884243;29;20052;-55
2021/01/09 09:16:20;;;;;;;27.98;14.02;;;;;;;2.36;76.21;100390.81;4888555;29;20189;-55
2021/01/09 09:18:47;;;;;;;27.08;14.75;;;;;;;2.31;75.66;100395.00;4884843;29;20532;-54
2021/01/09 09:21:14;;;;;;;24.15;13.63;;;;;;;2.41;75.90;100396.53;4888130;29;20230;-55
2021/01/09 09:23:39;;;;;;;26.33;14.57;;;;;;;2.41;76.64;100391.19;4887629;29;20048;-55
2021/01/09 09:26:06;;;;;;;28.08;15.00;;;;;;;2.49;76.50;100395.72;4887746;29;20037;-54
2021/01/09 09:28:45;;;;;;;26.13;14.32;;;;;;;2.43;75.75;100388.34;4872338;29;20064;-56
2021/01/09 09:31:19;;;;;;;22.75;12.82;;;;;;;2.44;76.61;100388.19;4874382;29;20044;-56
2021/01/09 09:33:58;;;;;;;23.95;14.18;;;;;;;2.50;76.42;100389.38;4855020;29;20128;-54
2021/01/09 09:36:24;;;;;;;24.20;14.32;;;;;;;2.55;76.52;100387.03;4887623;29;20052;-55
2021/01/09 09:38:49;;;;;;;23.75;13.55;;;;;;;2.63;76.29;100383.56;4871072;29;20556;-55
2021/01/09 09:41:15;;;;;;;21.80;13.75;;;;;;;2.71;75.70;100383.59;4872360;29;20037;-56
2021/01/09 09:43:40;;;;;;;20.63;12.73;;;;;;;2.88;75.31;100385.28;4858081;29;20427;-56
2021/01/09 09:46:08;;;;;;;21.98;12.80;;;;;;;2.64;75.22;100383.41;4859163;29;20373;-55
2021/01/09 09:48:36;;;;;;;18.70;10.45;;;;;;;2.60;75.78;100384.72;4855975;29;20051;-54
2021/01/09 09:51:10;;;;;;;17.13;10.93;;;;;;;2.77;75.33;100383.75;4872642;29;20044;-56
2021/01/09 09:53:38;;;;;;;17.52;9.68;;;;;;;2.83;75.39;100376.94;4888016;29;20051;-56
2021/01/09 09:56:20;;;;;;;17.80;10.10;;;;;;;2.71;75.73;100373.75;4871064;29;20076;-54
2021/01/09 09:58:48;;;;;;;15.13;9.65;;;;;;;2.86;75.72;100381.94;4870180;29;20513;-55
2021/01/09 10:01:21;;;;;;;17.23;10.00;;;;;;;2.75;75.48;100377.75;4887311;29;20120;-55
2021/01/09 10:03:49;;;;;;;16.10;10.13;;;;;;;2.93;75.12;100382.94;4869552;29;20044;-56
2021/01/09 10:06:15;;;;;;;17.30;9.95;;;;;;;2.89;75.50;100379.75;4867937;29;20045;-54
2021/01/09 10:08:41;;;;;;;16.58;9.63;;;;;;;3.05;75.14;100378.94;4866528;29;20041;-56
2021/01/09 10:11:08;;;;;;;15.32;8.98;;;;;;;3.23;73.85;100381.47;4854403;29;20060;-56
2021/01/09 10:13:35;;;;;;;17.23;10.65;;;;;;;3.07;74.04;100379.63;4883705;29;20534;-57
2021/01/09 10:16:02;;;;;;;17.70;10.00;;;;;;;3.04;74.78;100376.44;4872619;29;20384;-57
2021/01/09 10:18:30;;;;;;;15.05;9.10;;;;;;;2.92;75.76;100376.75;4890533;29;20127;-55
2021/01/09 10:20:57;;;;;;;15.48;9.57;;;;;;;3.03;75.40;100375.59;4875560;29;20104;-55
2021/01/09 10:23:24;;;;;;;16.88;8.70;;;;;;;2.89;75.36;100368.25;4889653;29;20082;-56
2021/01/09 10:25:50;;;;;;;14.65;8.23;;;;;;;2.79;76.07;100367.56;4887996;29;20040;-55
2021/01/09 10:28:15;;;;;;;16.20;8.27;;;;;;;2.80;76.09;100367.41;4856105;29;20055;-56
2021/01/09 10:30:41;;;;;;;14.38;8.00;;;;;;;2.69;76.68;100365.06;4852824;29;20076;-54
2021/01/09 10:33:07;;;;;;;12.88;7.70;;;;;;;2.71;77.11;100371.06;4856902;29;20037;-57
2021/01/09 10:35:33;;;;;;;12.57;7.22;;;;;;;2.68;76.24;100368.72;4868938;29;20052;-56
2021/01/09 10:37:59;;;;;;;12.10;7.43;;;;;;;2.85;75.60;100370.44;4877475;29;20105;-56
2021/01/09 10:40:26;;;;;;;13.25;8.32;;;;;;;2.90;75.61;100368.06;4873150;29;20049;-56
2021/01/09 10:42:52;;;;;;;12.98;7.35;;;;;;;2.86;76.84;100379.28;4872576;29;20057;-54
2021/01/09 10:45:18;;;;;;;12.57;8.32;;;;;;;2.76;76.87;100368.75;4890600;29;20083;-55
2021/01/09 10:47:45;;;;;;;13.13;8.10;;;;;;;2.72;76.47;100374.56;4877741;29;20065;-56
2021/01/09 10:50:11;;;;;;;11.45;7.35;;;;;;;2.49;77.78;100374.34;4874903;29;20041;-56
2021/01/09 10:52:38;;;;;;;12.85;7.68;;;;;;;2.60;75.73;100371.38;4874164;29;20127;-56
2021/01/09 10:55:05;;;;;;;12.43;7.65;;;;;;;2.72;76.53;100366.56;4887608;29;20514;-56
2021/01/09 10:57:30;;;;;;;11.77;7.28;;;;;;;2.80;76.06;100375.41;4878458;29;20123;-55
2021/01/09 10:59:57;;;;;;;12.82;7.85;;;;;;;2.71;76.00;100379.06;4852013;29;20051;-56
2021/01/09 11:02:23;;;;;;;10.98;7.25;;;;;;;2.45;75.72;100370.34;4856517;29;20099;-55
2021/01/09 11:04:50;;;;;;;11.90;7.57;;;;;;;2.58;77.63;100367.19;4877775;29;20054;-54
2021/01/09 11:07:16;;;;;;;12.00;7.45;;;;;;;2.81;77.17;100373.59;4874674;29;20278;-56
2021/01/09 11:09:43;;;;;;;13.85;7.32;;;;;;;3.02;75.35;100376.59;4871561;29;20430;-56
2021/01/09 11:12:10;;;;;;;10.85;6.90;;;;;;;2.81;76.27;100371.75;4856924;29;20047;-55
2021/01/09 11:14:36;;;;;;;14.32;7.78;;;;;;;2.92;76.35;100371.44;4872332;29;20491;-56
2021/01/09 11:17:05;;;;;;;11.88;7.13;;;;;;;2.65;75.08;100371.75;4890433;29;20060;-55
2021/01/09 11:19:30;;;;;;;11.65;6.82;;;;;;;2.79;75.66;100371.06;4889345;29;20091;-56
2021/01/09 11:22:05;;;;;;;12.40;7.68;;;;;;;2.86;76.59;100369.44;4870431;29;20494;-54
2021/01/09 11:24:32;;;;;;;16.50;7.97;;;;;;;2.90;77.06;100370.75;4872228;29;20658;-57
2021/01/09 11:27:02;;;;;;;11.38;6.82;;;;;;;2.79;76.43;100373.75;4891979;29;20033;-56
2021/01/09 11:29:28;;;;;;;12.38;7.30;;;;;;;2.30;76.83;100369.31;4866874;29;20282;-56
2021/01/09 11:31:58;;;;;;;11.15;7.35;;;;;;;2.60;75.91;100363.38;4883093;29;20045;-54
2021/01/09 11:34:27;;;;;;;11.07;6.75;;;;;;;2.52;76.15;100368.69;4888278;29;20041;-56
2021/01/09 11:36:55;;;;;;;9.95;6.45;;;;;;;2.44;75.77;100372.16;4886759;29;20056;-54
2021/01/09 11:39:21;;;;;;;12.43;7.07;;;;;;;2.46;77.14;100364.00;4890918;29;20053;-55
2021/01/09 11:41:48;;;;;;;12.60;6.80;;;;;;;2.45;76.81;100373.84;4882043;29;20130;-55
2021/01/09 11:44:15;;;;;;;12.10;7.20;;;;;;;2.51;77.04;100370.53;4887224;29;20044;-55
2021/01/09 11:46:41;;;;;;;11.65;7.10;;;;;;;2.73;76.53;100379.75;4887228;29;20088;-55
2021/01/09 11:49:07;;;;;;;10.35;6.78;;;;;;;2.89;76.31;100384.25;4879035;29;20044;-56
2021/01/09 11:51:33;;;;;;;12.80;7.22;;;;;;;2.39;76.61;100387.00;4869525;29;20123;-55
2021/01/09 11:53:59;;;;;;;9.98;6.72;;;;;;;2.42;76.97;100384.84;4887262;29;20046;-54
2021/01/09 11:56:24;;;;;;;10.40;6.78;;;;;;;2.37;76.95;100379.16;4890887;29;20047;-55
2021/01/09 11:58:50;;;;;;;9.50;6.13;;;;;;;2.64;76.45;100388.75;4887790;29;20123;-55
2021/01/09 12:01:16;;;;;;;10.63;7.13;;;;;;;2.53;76.68;100381.88;4884900;29;20041;-55
2021/01/09 12:03:42;;;;;;;10.30;6.75;;;;;;;2.69;77.65;100388.25;4872331;29;20479;-55
2021/01/09 12:06:07;;;;;;;9.27;6.45;;;;;;;2.55;77.94;100384.38;4861025;29;20418;-55
2021/01/09 12:08:34;;;;;;;10.43;7.20;;;;;;;2.38;77.41;100391.50;4874243;29;20040;-55
2021/01/09 12:10:59;;;;;;;11.85;7.40;;;;;;;2.54;78.69;100385.38;4870568;29;20506;-54
2021/01/09 12:13:25;;;;;;;12.25;7.22;;;;;;;2.64;77.65;100387.91;4866791;29;20044;-56
2021/01/09 12:15:51;;;;;;;11.23;7.00;;;;;;;2.34;77.49;100387.47;4885371;29;20052;-55
2021/01/09 12:18:19;;;;;;;10.88;7.53;;;;;;;2.32;78.02;100392.13;4882716;29;20120;-56
2021/01/09 12:20:49;;;;;;;10.15;6.95;;;;;;;2.24;78.70;100397.44;4871967;29;20605;-55
2021/01/09 12:23:15;;;;;;;10.32;6.40;;;;;;;2.40;78.61;100391.34;4873954;29;20459;-55
2021/01/09 12:25:44;;;;;;;11.35;6.75;;;;;;;2.41;77.29;100390.34;4852491;29;20041;-55
2021/01/09 12:28:12;;;;;;;11.93;6.95;;;;;;;2.23;78.22;100394.94;4884080;29;20052;-56
2021/01/09 12:30:38;;;;;;;11.60;7.07;;;;;;;2.06;78.89;100396.72;4863671;29;20047;-55
2021/01/09 12:33:06;;;;;;;11.05;6.63;;;;;;;2.09;77.52;100397.22;4867586;29;20041;-56
2021/01/09 12:35:35;;;;;;;12.07;6.60;;;;;;;2.24;77.89;100408.13;4868319;29;20049;-56
2021/01/09 12:38:03;;;;;;;14.63;7.30;;;;;;;2.46;77.94;100407.53;4885442;29;20045;-54
2021/01/09 12:40:31;;;;;;;14.25;7.30;;;;;;;2.34;77.80;100408.81;4878849;29;20045;-54
2021/01/09 12:42:57;;;;;;;9.55;6.43;;;;;;;2.13;77.12;100414.56;4865124;29;20040;-55
2021/01/09 12:45:23;;;;;;;12.43;7.53;;;;;;;2.12;78.78;100417.41;4869847;29;20049;-55
2021/01/09 12:47:50;;;;;;;11.98;7.43;;;;;;;2.07;78.28;100412.56;4878723;29;20052;-56
2021/01/09 12:50:16;;;;;;;10.18;6.97;;;;;;;2.16;78.57;100406.25;4871963;29;20077;-55
2021/01/09 12:52:44;;;;;;;12.60;7.28;;;;;;;2.29;79.26;100416.50;4858283;29;20044;-54
2021/01/09 12:55:10;;;;;;;12.43;7.05;;;;;;;2.02;79.45;100414.84;4858200;29;20051;-56
2021/01/09 12:57:40;;;;;;;14.73;6.97;;;;;;;2.16;79.16;100408.09;4864632;29;20069;-56
2021/01/09 13:00:07;;;;;;;11.65;6.97;;;;;;;2.33;79.55;100412.50;4862032;29;20455;-54
2021/01/09 13:02:32;;;;;;;13.48;6.47;;;;;;;2.34;80.42;100411.50;4862494;29;20517;-54
2021/01/09 13:04:58;;;;;;;14.48;8.45;;;;;;;2.26;80.51;100415.97;4857195;29;20045;-54
2021/01/09 13:07:23;;;;;;;10.73;6.93;;;;;;;2.34;79.83;100418.66;4859592;29;20498;-55
2021/01/09 13:09:49;;;;;;;13.15;7.50;;;;;;;2.26;78.96;100408.81;4877049;29;20055;-56
2021/01/09 13:12:15;;;;;;;11.98;6.82;;;;;;;2.23;80.11;100411.78;4876151;29;20041;-55
2021/01/09 13:14:40;;;;;;;11.50;6.90;;;;;;;2.01;79.68;100415.84;4864746;29;20127;-56
2021/01/09 13:17:10;;;;;;;14.30;6.72;;;;;;;2.08;79.32;100410.72;4877200;29;20040;-54
2021/01/09 13:19:36;;;;;;;11.35;6.72;;;;;;;2.34;79.81;100419.50;4852903;29;20403;-55
2021/01/09 13:22:02;;;;;;;16.02;8.50;;;;;;;2.17;79.15;100420.44;4849809;29;20045;-54
2021/01/09 13:24:29;;;;;;;11.65;6.78;;;;;;;2.06;79.59;100420.72;4882325;29;20037;-56
2021/01/09 13:27:01;;;;;;;12.82;7.65;;;;;;;2.08;78.94;100430.22;4842525;29;20040;-55
2021/01/09 13:29:27;;;;;;;13.30;7.57;;;;;;;1.88;80.74;100434.09;4851486;29;20045;-56
2021/01/09 13:31:53;;;;;;;20.23;7.85;;;;;;;2.06;79.57;100426.06;4870135;29;20041;-55
2021/01/09 13:34:20;;;;;;;12.43;7.43;;;;;;;2.03;81.06;100432.53;4866716;29;20063;-55
2021/01/09 13:36:46;;;;;;;13.77;7.43;;;;;;;2.26;80.70;100426.63;4844315;29;20500;-55
2021/01/09 13:39:14;;;;;;;18.17;9.00;;;;;;;2.26;79.68;100426.63;4841271;29;20054;-55
2021/01/09 13:41:42;;;;;;;18.85;8.30;;;;;;;2.35;80.49;100431.84;4851415;29;20426;-55
2021/01/09 13:44:09;;;;;;;15.68;7.97;;;;;;;2.35;79.93;100439.00;4864921;29;20045;-54
2021/01/09 13:46:36;;;;;;;15.18;8.43;;;;;;;2.44;79.86;100436.22;4847238;29;20037;-54
2021/01/09 13:49:09;;;;;;;14.60;8.18;;;;;;;2.09;79.61;100434.56;4850517;29;20041;-55
2021/01/09 13:51:35;;;;;;;16.23;8.73;;;;;;;2.21;80.07;100443.09;4855096;29;20123;-54
2021/01/09 13:54:02;;;;;;;17.33;8.25;;;;;;;2.32;79.52;100450.84;4850081;29;20415;-57
2021/01/09 13:56:39;;;;;;;16.02;8.75;;;;;;;1.82;79.72;100448.06;4871137;29;20052;-55
2021/01/09 13:59:07;;;;;;;15.45;9.30;;;;;;;2.10;79.91;100454.91;4851006;29;20069;-55
2021/01/09 14:01:33;;;;;;;14.73;8.40;;;;;;;2.14;79.08;100434.09;4836972;29;20048;-53
2021/01/09 14:03:59;;;;;;;16.75;9.60;;;;;;;2.41;79.74;100444.56;4838840;29;20590;-55
2021/01/09 14:06:25;;;;;;;14.45;8.75;;;;;;;2.16;79.97;100443.59;4847826;29;20076;-55
2021/01/09 14:08:51;;;;;;;13.35;8.02;;;;;;;2.37;79.31;100442.34;4844907;29;20073;-56
2021/01/09 14:11:19;;;;;;;15.18;9.00;;;;;;;2.36;79.22;100441.53;4839690;29;20045;-54
2021/01/09 14:13:45;;;;;;;14.93;8.32;;;;;;;2.42;78.75;100451.53;4860995;29;20049;-56
2021/01/09 14:16:17;;;;;;;15.35;8.30;;;;;;;2.37;78.39;100453.88;4856442;29;20056;-56
2021/01/09 14:18:44;;;;;;;12.75;8.02;;;;;;;2.20;78.74;100465.44;4868930;29;20515;-55
2021/01/09 14:21:09;;;;;;;18.98;9.07;;;;;;;2.10;78.78;100464.72;4866853;29;20430;-55
2021/01/09 14:23:35;;;;;;;19.92;9.60;;;;;;;2.25;79.20;100459.66;4868966;29;20049;-56
2021/01/09 14:26:00;;;;;;;16.08;8.80;;;;;;;2.25;79.64;100465.81;4873766;29;20049;-55
2021/01/09 14:28:26;;;;;;;14.50;7.97;;;;;;;2.33;79.12;100467.69;4858472;29;20044;-55
2021/01/09 14:30:52;;;;;;;16.27;9.25;;;;;;;2.24;78.59;100473.97;4872373;29;20044;-55
2021/01/09 14:33:18;;;;;;;13.73;8.10;;;;;;;2.25;78.96;100470.31;4868232;29;20123;-55
2021/01/09 14:35:47;;;;;;;16.48;9.23;;;;;;;1.91;79.34;100484.44;4875750;29;20198;-54
2021/01/09 14:38:13;;;;;;;14.18;9.15;;;;;;;2.11;79.12;100480.56;4859005;29;20041;-55
2021/01/09 14:40:39;;;;;;;14.73;8.35;;;;;;;2.29;79.08;100475.19;4853210;29;20404;-55
2021/01/09 14:43:04;;;;;;;13.60;8.20;;;;;;;2.36;79.31;100476.22;4870765;29;20049;-56
2021/01/09 14:45:30;;;;;;;15.30;8.20;;;;;;;2.40;78.76;100484.75;4874737;29;20447;-56
2021/01/09 14:47:56;;;;;;;10.73;6.53;;;;;;;1.95;77.80;100487.66;4886218;29;20053;-54
2021/01/09 14:50:23;;;;;;;10.18;6.88;;;;;;;1.94;79.16;100483.31;4871526;29;20048;-55
2021/01/09 14:52:49;;;;;;;11.65;7.10;;;;;;;1.96;80.50;100484.81;4872483;29;20048;-55
2021/01/09 14:55:15;;;;;;;12.65;7.18;;;;;;;2.14;78.89;100487.44;4871579;29;20562;-55
2021/01/09 14:57:41;;;;;;;12.95;7.25;;;;;;;2.25;79.70;100478.31;4874770;29;20056;-56
2021/01/09 15:00:07;;;;;;;11.02;6.95;;;;;;;2.03;79.05;100493.03;4870527;29;20052;-56
2021/01/09 15:02:33;;;;;;;11.80;6.75;;;;;;;2.08;79.40;100493.38;4873355;29;20047;-54
2021/01/09 15:04:59;;;;;;;11.07;7.18;;;;;;;2.11;78.96;100496.56;4872427;29;20044;-55
2021/01/09 15:07:25;;;;;;;11.55;7.05;;;;;;;2.15;79.97;100494.44;4851754;29;20083;-56
2021/01/09 15:09:51;;;;;;;11.52;6.95;;;;;;;2.09;79.76;100500.38;4833807;29;20543;-55
2021/01/09 15:12:19;;;;;;;11.52;6.78;;;;;;;1.97;79.78;100490.97;4836675;29;20512;-56
2021/01/09 15:14:46;;;;;;;12.88;7.38;;;;;;;1.54;81.79;100497.16;4842921;29;20041;-58
2021/01/09 15:17:11;;;;;;;12.63;6.72;;;;;;;1.81;81.36;100497.88;4869958;29;20161;-55
2021/01/09 15:19:38;;;;;;;11.77;6.85;;;;;;;1.98;81.55;100504.16;4861894;29;20500;-54
2021/01/09 15:22:05;;;;;;;13.27;7.38;;;;;;;1.73;81.22;100500.47;4858042;29;20406;-54
2021/01/09 15:24:31;;;;;;;13.93;7.35;;;;;;;1.95;81.77;100501.81;4862824;29;20048;-55
2021/01/09 15:26:58;;;;;;;12.23;7.43;;;;;;;1.75;81.07;100514.47;4868918;29;20422;-56
2021/01/09 15:29:24;;;;;;;13.00;7.70;;;;;;;1.87;81.52;100508.91;4871185;29;20312;-56
2021/01/09 15:31:51;;;;;;;13.15;7.57;;;;;;;1.96;82.11;100511.47;4871668;29;20048;-56
2021/01/09 15:34:17;;;;;;;12.38;7.20;;;;;;;1.98;81.48;100513.97;4887614;29;20131;-55
2021/01/09 15:36:44;;;;;;;13.18;7.65;;;;;;;2.09;81.31;100516.38;4872042;29;20108;-55
2021/01/09 15:39:13;;;;;;;12.35;7.18;;;;;;;2.05;81.68;100521.22;4872942;29;20040;-54
2021/01/09 15:41:38;;;;;;;13.93;8.20;;;;;;;2.08;80.68;100522.72;4870292;29;20087;-56
2021/01/09 15:44:04;;;;;;;9.60;6.68;;;;;;;2.21;80.37;100528.47;4870239;29;20128;-55
2021/01/09 15:46:35;;;;;;;14.23;8.07;;;;;;;2.17;80.83;100530.63;4868722;29;20056;-56
2021/01/09 15:49:01;;;;;;;13.45;8.15;;;;;;;2.09;81.84;100532.38;4867511;29;20113;-55
2021/01/09 15:51:26;;;;;;;11.70;7.75;;;;;;;1.59;82.55;100535.69;4870027;29;20190;-55
2021/01/09 15:53:52;;;;;;;12.02;7.07;;;;;;;1.93;82.43;100532.28;4842040;29;20253;-56
2021/01/09 15:56:17;;;;;;;13.63;7.60;;;;;;;2.04;82.22;100537.38;4850575;29;20059;-54
2021/01/09 15:58:44;;;;;;;12.48;7.32;;;;;;;2.02;81.98;100529.53;4855462;29;20057;-56
2021/01/09 16:01:16;;;;;;;11.25;6.63;;;;;;;2.14;80.96;100536.28;4857046;29;20044;-56
2021/01/09 16:03:43;;;;;;;11.95;7.05;;;;;;;2.14;80.78;100541.59;4865203;29;20071;-55
2021/01/09 16:06:11;;;;;;;11.13;6.93;;;;;;;2.18;80.83;100550.97;4855763;29;20041;-56
2021/01/09 16:08:38;;;;;;;11.27;6.97;;;;;;;2.23;80.11;100547.81;4889103;29;20047;-56
2021/01/09 16:11:19;;;;;;;9.52;6.55;;;;;;;2.19;79.93;100546.50;4867817;29;20076;-56
2021/01/09 16:13:48;;;;;;;10.38;7.05;;;;;;;2.10;80.31;100552.72;4864606;29;20100;-56
2021/01/09 16:16:14;;;;;;;11.30;6.45;;;;;;;2.26;79.46;100552.00;4883741;29;20083;-55
2021/01/09 16:18:40;;;;;;;11.13;7.05;;;;;;;2.06;80.35;100543.38;4868226;29;20114;-54
2021/01/09 16:21:08;;;;;;;11.68;7.47;;;;;;;1.93;80.16;100545.63;4874546;29;20047;-55
2021/01/09 16:23:34;;;;;;;10.75;6.63;;;;;;;2.17;79.45;100553.81;4865720;29;20119;-54
2021/01/09 16:26:00;;;;;;;10.95;7.03;;;;;;;2.09;80.75;100549.22;4873644;29;20041;-56
2021/01/09 16:28:26;;;;;;;12.32;7.00;;;;;;;2.18;79.96;100548.31;4872634;29;20056;-55